X  Schlie├čen METAR Luftfahrt Wetterdaten     EHRD Rotterdam The Hague Airport
Temperatur
21°C Temperatur
13°C Taupunkt
60% Feuchtigkeit



Wind
11 KM/S
7 MPS
3 M/S
6 KTS



280°
West
Aktuelle Wetterlage

Klar Klar
Luftdruck 1019.98 (hPa) - 30.12 (inHg)
Sichtweite 6 (Meile) - 9.7 (Km)
Flughafen
Flughafen Code EHRD

Position : Rotterdam The Hague Airport
Entfernung: 16 (Km)

Metar:
EHRD 241525Z AUTO 28006KT 240V330 9999 NCD 21/13 Q1020 NOSIG

Zeit: 24-07-2024 15:25 CEST